sensor_id;sensor_type;location;lat;lon;timestamp;pressure;altitude;pressure_sealevel;temperature;humidity
73242;BME280;65659;49.234;-2.094;2023-02-11T00:02:08;102642.46;;;25.84;23.58
73242;BME280;65659;49.234;-2.094;2023-02-11T00:04:34;102643.02;;;26.03;23.61
73242;BME280;65659;49.234;-2.094;2023-02-11T00:07:00;102642.06;;;25.98;23.67
73242;BME280;65659;49.234;-2.094;2023-02-11T00:09:25;102642.02;;;25.91;23.73
73242;BME280;65659;49.234;-2.094;2023-02-11T00:11:51;102636.36;;;25.93;23.73
73242;BME280;65659;49.234;-2.094;2023-02-11T00:14:17;102638.17;;;25.66;23.76
73242;BME280;65659;49.234;-2.094;2023-02-11T00:16:43;102636.36;;;25.94;23.75
73242;BME280;65659;49.234;-2.094;2023-02-11T00:19:09;102635.78;;;26.00;23.70
73242;BME280;65659;49.234;-2.094;2023-02-11T00:21:34;102632.41;;;26.00;23.72
73242;BME280;65659;49.234;-2.094;2023-02-11T00:24:00;102630.38;;;25.93;23.83
73242;BME280;65659;49.234;-2.094;2023-02-11T00:26:28;102629.71;;;25.94;23.79
73242;BME280;65659;49.234;-2.094;2023-02-11T00:28:52;102633.24;;;26.00;23.78
73242;BME280;65659;49.234;-2.094;2023-02-11T00:31:19;102636.50;;;25.99;23.80
73242;BME280;65659;49.234;-2.094;2023-02-11T00:33:43;102636.05;;;26.03;23.77
73242;BME280;65659;49.234;-2.094;2023-02-11T00:36:12;102637.06;;;26.01;23.78
73242;BME280;65659;49.234;-2.094;2023-02-11T00:38:35;102633.44;;;26.02;23.79
73242;BME280;65659;49.234;-2.094;2023-02-11T00:41:00;102631.57;;;26.03;23.76
73242;BME280;65659;49.234;-2.094;2023-02-11T00:43:26;102628.34;;;26.01;23.79
73242;BME280;65659;49.234;-2.094;2023-02-11T00:45:52;102623.34;;;25.95;23.86
73242;BME280;65659;49.234;-2.094;2023-02-11T00:48:17;102625.30;;;25.90;23.91
73242;BME280;65659;49.234;-2.094;2023-02-11T00:50:43;102624.71;;;25.88;23.94
73242;BME280;65659;49.234;-2.094;2023-02-11T00:53:09;102627.11;;;25.88;23.95
73242;BME280;65659;49.234;-2.094;2023-02-11T00:55:35;102624.50;;;25.95;23.90
73242;BME280;65659;49.234;-2.094;2023-02-11T00:58:01;102625.77;;;25.91;23.94
73242;BME280;65659;49.234;-2.094;2023-02-11T01:00:26;102624.79;;;25.86;24.00
73242;BME280;65659;49.234;-2.094;2023-02-11T01:02:52;102624.19;;;25.86;24.02
73242;BME280;65659;49.234;-2.094;2023-02-11T01:05:18;102621.84;;;25.86;24.01
73242;BME280;65659;49.234;-2.094;2023-02-11T01:07:43;102617.05;;;25.85;24.02
73242;BME280;65659;49.234;-2.094;2023-02-11T01:10:09;102612.54;;;25.81;24.05
73242;BME280;65659;49.234;-2.094;2023-02-11T01:12:35;102609.49;;;25.85;24.04
73242;BME280;65659;49.234;-2.094;2023-02-11T01:15:01;102612.40;;;25.91;24.01
73242;BME280;65659;49.234;-2.094;2023-02-11T01:17:26;102610.65;;;25.85;24.05
73242;BME280;65659;49.234;-2.094;2023-02-11T01:19:52;102610.80;;;25.91;24.01
73242;BME280;65659;49.234;-2.094;2023-02-11T01:22:18;102607.80;;;25.89;24.04
73242;BME280;65659;49.234;-2.094;2023-02-11T01:24:43;102602.44;;;25.97;23.98
73242;BME280;65659;49.234;-2.094;2023-02-11T01:27:09;102603.65;;;26.17;24.04
73242;BME280;65659;49.234;-2.094;2023-02-11T01:29:35;102600.44;;;25.74;23.95
73242;BME280;65659;49.234;-2.094;2023-02-11T01:32:00;102600.42;;;25.97;23.96
73242;BME280;65659;49.234;-2.094;2023-02-11T01:34:26;102598.81;;;26.13;24.03
73242;BME280;65659;49.234;-2.094;2023-02-11T01:36:56;102593.73;;;25.88;24.05
73242;BME280;65659;49.234;-2.094;2023-02-11T01:39:18;102594.97;;;25.89;24.05
73242;BME280;65659;49.234;-2.094;2023-02-11T01:41:43;102594.11;;;25.86;24.10
73242;BME280;65659;49.234;-2.094;2023-02-11T01:44:21;102597.74;;;25.64;24.08
73242;BME280;65659;49.234;-2.094;2023-02-11T01:46:37;102600.13;;;25.90;24.05
73242;BME280;65659;49.234;-2.094;2023-02-11T01:49:06;102597.75;;;25.84;24.12
73242;BME280;65659;49.234;-2.094;2023-02-11T01:51:31;102600.30;;;25.86;24.11
73242;BME280;65659;49.234;-2.094;2023-02-11T01:53:52;102603.00;;;26.08;24.13
73242;BME280;65659;49.234;-2.094;2023-02-11T01:56:19;102603.10;;;26.05;24.16
73242;BME280;65659;49.234;-2.094;2023-02-11T01:58:45;102599.12;;;25.82;24.14
73242;BME280;65659;49.234;-2.094;2023-02-11T02:01:10;102596.30;;;25.58;24.17
73242;BME280;65659;49.234;-2.094;2023-02-11T02:03:37;102596.38;;;25.87;24.12
73242;BME280;65659;49.234;-2.094;2023-02-11T02:06:05;102597.64;;;25.89;24.10
73242;BME280;65659;49.234;-2.094;2023-02-11T02:08:32;102603.09;;;26.02;23.97
73242;BME280;65659;49.234;-2.094;2023-02-11T02:10:53;102601.21;;;25.82;23.93
73242;BME280;65659;49.234;-2.094;2023-02-11T02:13:18;102600.08;;;26.00;24.00
73242;BME280;65659;49.234;-2.094;2023-02-11T02:15:47;102602.39;;;25.99;24.01
73242;BME280;65659;49.234;-2.094;2023-02-11T02:18:19;102604.90;;;26.00;24.01
73242;BME280;65659;49.234;-2.094;2023-02-11T02:20:57;102604.76;;;25.99;24.00
73242;BME280;65659;49.234;-2.094;2023-02-11T02:23:18;102601.09;;;25.93;24.06
73242;BME280;65659;49.234;-2.094;2023-02-11T02:27:55;102597.70;;;25.73;24.03
73242;BME280;65659;49.234;-2.094;2023-02-11T02:30:37;102593.33;;;25.99;24.01
73242;BME280;65659;49.234;-2.094;2023-02-11T02:32:51;102591.70;;;25.97;24.05
73242;BME280;65659;49.234;-2.094;2023-02-11T02:35:16;102589.49;;;25.97;24.06
73242;BME280;65659;49.234;-2.094;2023-02-11T02:37:39;102588.71;;;25.95;24.09
73242;BME280;65659;49.234;-2.094;2023-02-11T02:40:05;102587.55;;;25.92;24.10
73242;BME280;65659;49.234;-2.094;2023-02-11T02:42:27;102585.31;;;25.66;24.12
73242;BME280;65659;49.234;-2.094;2023-02-11T02:44:52;102581.54;;;25.94;24.09
73242;BME280;65659;49.234;-2.094;2023-02-11T02:47:18;102585.20;;;25.97;24.06
73242;BME280;65659;49.234;-2.094;2023-02-11T02:49:44;102584.46;;;26.15;24.13
73242;BME280;65659;49.234;-2.094;2023-02-11T02:52:18;102583.49;;;25.66;24.17
73242;BME280;65659;49.234;-2.094;2023-02-11T02:57:08;102578.23;;;25.66;24.15
73242;BME280;65659;49.234;-2.094;2023-02-11T02:59:39;102572.74;;;26.00;24.05
73242;BME280;65659;49.234;-2.094;2023-02-11T03:01:58;102569.35;;;26.02;24.01
73242;BME280;65659;49.234;-2.094;2023-02-11T03:04:24;102569.26;;;26.04;24.07
73242;BME280;65659;49.234;-2.094;2023-02-11T03:06:48;102567.57;;;26.00;24.06
73242;BME280;65659;49.234;-2.094;2023-02-11T03:09:15;102566.60;;;25.99;24.07
73242;BME280;65659;49.234;-2.094;2023-02-11T03:11:36;102564.91;;;26.01;24.06
73242;BME280;65659;49.234;-2.094;2023-02-11T03:14:04;102565.75;;;25.96;24.10
73242;BME280;65659;49.234;-2.094;2023-02-11T03:16:28;102565.14;;;25.96;24.10
73242;BME280;65659;49.234;-2.094;2023-02-11T03:18:56;102561.47;;;25.95;24.11
73242;BME280;65659;49.234;-2.094;2023-02-11T03:21:19;102556.51;;;25.96;24.11
73242;BME280;65659;49.234;-2.094;2023-02-11T03:23:48;102553.91;;;25.99;24.08
73242;BME280;65659;49.234;-2.094;2023-02-11T03:26:14;102551.18;;;25.97;24.11
73242;BME280;65659;49.234;-2.094;2023-02-11T03:28:41;102549.39;;;25.96;24.12
73242;BME280;65659;49.234;-2.094;2023-02-11T03:31:09;102547.83;;;25.92;24.17
73242;BME280;65659;49.234;-2.094;2023-02-11T03:33:31;102548.12;;;25.91;24.18
73242;BME280;65659;49.234;-2.094;2023-02-11T03:35:55;102547.40;;;25.89;24.21
73242;BME280;65659;49.234;-2.094;2023-02-11T03:38:21;102544.63;;;25.88;24.21
73242;BME280;65659;49.234;-2.094;2023-02-11T03:40:45;102541.64;;;25.88;24.25
73242;BME280;65659;49.234;-2.094;2023-02-11T03:43:12;102543.16;;;25.89;24.22
73242;BME280;65659;49.234;-2.094;2023-02-11T03:45:36;102541.97;;;25.90;24.25
73242;BME280;65659;49.234;-2.094;2023-02-11T03:48:04;102542.15;;;25.87;24.27
73242;BME280;65659;49.234;-2.094;2023-02-11T03:50:29;102538.03;;;25.88;24.30
73242;BME280;65659;49.234;-2.094;2023-02-11T03:52:54;102536.32;;;26.22;24.17
73242;BME280;65659;49.234;-2.094;2023-02-11T03:55:20;102537.05;;;25.95;24.22
73242;BME280;65659;49.234;-2.094;2023-02-11T03:57:45;102532.46;;;26.02;24.17
73242;BME280;65659;49.234;-2.094;2023-02-11T04:00:12;102526.20;;;26.13;24.07
73242;BME280;65659;49.234;-2.094;2023-02-11T04:02:36;102521.77;;;26.05;24.10
73242;BME280;65659;49.234;-2.094;2023-02-11T04:05:04;102521.44;;;25.76;24.18
73242;BME280;65659;49.234;-2.094;2023-02-11T04:07:28;102522.03;;;25.98;24.19
73242;BME280;65659;49.234;-2.094;2023-02-11T04:09:53;102521.29;;;25.74;24.16
73242;BME280;65659;49.234;-2.094;2023-02-11T04:12:19;102521.09;;;25.94;24.22
73242;BME280;65659;49.234;-2.094;2023-02-11T04:14:44;102516.12;;;25.90;24.24
73242;BME280;65659;49.234;-2.094;2023-02-11T04:17:10;102516.63;;;25.88;24.25
73242;BME280;65659;49.234;-2.094;2023-02-11T04:19:36;102518.28;;;25.62;24.27
73242;BME280;65659;49.234;-2.094;2023-02-11T04:22:02;102520.59;;;25.86;24.30
73242;BME280;65659;49.234;-2.094;2023-02-11T04:24:28;102521.38;;;26.11;24.29
73242;BME280;65659;49.234;-2.094;2023-02-11T04:26:53;102523.37;;;25.85;24.30
73242;BME280;65659;49.234;-2.094;2023-02-11T04:29:19;102520.08;;;25.88;24.27
73242;BME280;65659;49.234;-2.094;2023-02-11T04:31:45;102521.85;;;25.86;24.29
73242;BME280;65659;49.234;-2.094;2023-02-11T04:34:10;102522.65;;;25.87;24.31
73242;BME280;65659;49.234;-2.094;2023-02-11T04:36:36;102521.77;;;26.19;24.23
73242;BME280;65659;49.234;-2.094;2023-02-11T04:39:02;102519.83;;;25.91;24.26
73242;BME280;65659;49.234;-2.094;2023-02-11T04:41:28;102515.52;;;25.90;24.31
73242;BME280;65659;49.234;-2.094;2023-02-11T04:43:53;102517.10;;;25.91;24.29
73242;BME280;65659;49.234;-2.094;2023-02-11T04:46:19;102519.38;;;26.15;24.28
73242;BME280;65659;49.234;-2.094;2023-02-11T04:48:45;102519.94;;;25.88;24.34
73242;BME280;65659;49.234;-2.094;2023-02-11T04:51:10;102518.04;;;25.97;24.24
73242;BME280;65659;49.234;-2.094;2023-02-11T04:53:36;102513.98;;;25.96;24.28
73242;BME280;65659;49.234;-2.094;2023-02-11T04:56:02;102512.56;;;25.98;24.23
73242;BME280;65659;49.234;-2.094;2023-02-11T04:58:28;102513.40;;;26.24;24.21
73242;BME280;65659;49.234;-2.094;2023-02-11T05:00:53;102517.27;;;25.96;24.24
73242;BME280;65659;49.234;-2.094;2023-02-11T05:03:19;102522.52;;;25.99;24.21
73242;BME280;65659;49.234;-2.094;2023-02-11T05:05:45;102521.88;;;25.95;24.26
73242;BME280;65659;49.234;-2.094;2023-02-11T05:08:11;102518.54;;;25.89;24.30
73242;BME280;65659;49.234;-2.094;2023-02-11T05:10:36;102519.38;;;25.90;24.31
73242;BME280;65659;49.234;-2.094;2023-02-11T05:13:02;102516.59;;;25.97;24.24
73242;BME280;65659;49.234;-2.094;2023-02-11T05:15:29;102513.80;;;25.95;24.27
73242;BME280;65659;49.234;-2.094;2023-02-11T05:17:53;102512.43;;;25.92;24.30
73242;BME280;65659;49.234;-2.094;2023-02-11T05:20:19;102516.28;;;25.87;24.35
73242;BME280;65659;49.234;-2.094;2023-02-11T05:22:45;102519.85;;;25.89;24.35
73242;BME280;65659;49.234;-2.094;2023-02-11T05:25:11;102525.03;;;25.87;24.35
73242;BME280;65659;49.234;-2.094;2023-02-11T05:27:36;102521.48;;;25.86;24.39
73242;BME280;65659;49.234;-2.094;2023-02-11T05:30:02;102519.57;;;25.85;24.40
73242;BME280;65659;49.234;-2.094;2023-02-11T05:32:28;102520.46;;;25.88;24.35
73242;BME280;65659;49.234;-2.094;2023-02-11T05:34:53;102518.60;;;25.87;24.39
73242;BME280;65659;49.234;-2.094;2023-02-11T05:37:19;102517.16;;;26.14;24.38
73242;BME280;65659;49.234;-2.094;2023-02-11T05:39:45;102519.71;;;25.91;24.37
73242;BME280;65659;49.234;-2.094;2023-02-11T05:42:11;102527.07;;;25.68;24.36
73242;BME280;65659;49.234;-2.094;2023-02-11T05:44:36;102528.78;;;25.72;24.36
73242;BME280;65659;49.234;-2.094;2023-02-11T05:47:02;102527.23;;;26.03;24.25
73242;BME280;65659;49.234;-2.094;2023-02-11T05:49:28;102528.10;;;26.08;24.21
73242;BME280;65659;49.234;-2.094;2023-02-11T05:51:53;102525.62;;;26.12;24.18
73242;BME280;65659;49.234;-2.094;2023-02-11T05:54:19;102526.95;;;26.04;24.26
73242;BME280;65659;49.234;-2.094;2023-02-11T05:56:45;102526.09;;;25.98;24.29
73242;BME280;65659;49.234;-2.094;2023-02-11T05:59:12;102526.52;;;25.99;24.28
73242;BME280;65659;49.234;-2.094;2023-02-11T06:01:37;102526.84;;;25.72;24.32
73242;BME280;65659;49.234;-2.094;2023-02-11T06:04:02;102524.33;;;25.91;24.34
73242;BME280;65659;49.234;-2.094;2023-02-11T06:06:33;102526.24;;;26.17;24.33
73242;BME280;65659;49.234;-2.094;2023-02-11T06:08:54;102522.78;;;25.95;24.35
73242;BME280;65659;49.234;-2.094;2023-02-11T06:11:19;102526.72;;;25.95;24.33
73242;BME280;65659;49.234;-2.094;2023-02-11T06:13:45;102532.15;;;25.92;24.38
73242;BME280;65659;49.234;-2.094;2023-02-11T06:16:11;102533.66;;;25.89;24.39
73242;BME280;65659;49.234;-2.094;2023-02-11T06:18:37;102532.72;;;25.90;24.40
73242;BME280;65659;49.234;-2.094;2023-02-11T06:21:06;102530.10;;;25.91;24.38
73242;BME280;65659;49.234;-2.094;2023-02-11T06:23:28;102527.72;;;26.15;24.41
73242;BME280;65659;49.234;-2.094;2023-02-11T06:25:54;102527.04;;;25.73;24.37
73242;BME280;65659;49.234;-2.094;2023-02-11T06:28:19;102528.29;;;26.05;24.28
73242;BME280;65659;49.234;-2.094;2023-02-11T06:30:45;102529.16;;;26.04;24.28
73242;BME280;65659;49.234;-2.094;2023-02-11T06:33:11;102530.00;;;25.97;24.37
73242;BME280;65659;49.234;-2.094;2023-02-11T06:35:38;102529.41;;;25.97;24.35
73242;BME280;65659;49.234;-2.094;2023-02-11T06:38:02;102529.45;;;25.98;24.38
73242;BME280;65659;49.234;-2.094;2023-02-11T06:40:28;102530.63;;;25.97;24.39
73242;BME280;65659;49.234;-2.094;2023-02-11T06:42:54;102530.61;;;25.93;24.42
73242;BME280;65659;49.234;-2.094;2023-02-11T06:45:20;102528.06;;;25.93;24.44
73242;BME280;65659;49.234;-2.094;2023-02-11T06:47:46;102528.45;;;25.92;24.44
73242;BME280;65659;49.234;-2.094;2023-02-11T06:50:13;102527.61;;;25.92;24.42
73242;BME280;65659;49.234;-2.094;2023-02-11T06:52:37;102529.11;;;25.92;24.42
73242;BME280;65659;49.234;-2.094;2023-02-11T06:55:03;102533.60;;;26.16;24.44
73242;BME280;65659;49.234;-2.094;2023-02-11T06:57:30;102532.01;;;26.17;24.41
73242;BME280;65659;49.234;-2.094;2023-02-11T06:59:54;102533.07;;;25.92;24.45
73242;BME280;65659;49.234;-2.094;2023-02-11T07:02:20;102532.55;;;25.72;24.40
73242;BME280;65659;49.234;-2.094;2023-02-11T07:04:45;102536.71;;;26.23;24.37
73242;BME280;65659;49.234;-2.094;2023-02-11T07:07:11;102543.19;;;25.92;24.44
73242;BME280;65659;49.234;-2.094;2023-02-11T07:09:37;102546.03;;;25.41;24.49
73242;BME280;65659;49.234;-2.094;2023-02-11T07:12:03;102550.24;;;25.89;24.47
73242;BME280;65659;49.234;-2.094;2023-02-11T07:14:30;102552.31;;;25.88;24.49
73242;BME280;65659;49.234;-2.094;2023-02-11T07:16:54;102552.83;;;26.15;24.45
73242;BME280;65659;49.234;-2.094;2023-02-11T07:19:20;102555.68;;;25.91;24.46
73242;BME280;65659;49.234;-2.094;2023-02-11T07:21:46;102555.58;;;25.89;24.53
73242;BME280;65659;49.234;-2.094;2023-02-11T07:24:12;102555.31;;;25.92;24.46
73242;BME280;65659;49.234;-2.094;2023-02-11T07:26:37;102557.10;;;25.96;24.42
73242;BME280;65659;49.234;-2.094;2023-02-11T07:29:03;102559.52;;;25.94;24.48
73242;BME280;65659;49.234;-2.094;2023-02-11T07:31:29;102567.94;;;25.97;24.46
73242;BME280;65659;49.234;-2.094;2023-02-11T07:33:56;102568.92;;;26.02;24.41
73242;BME280;65659;49.234;-2.094;2023-02-11T07:36:21;102575.89;;;25.99;24.43
73242;BME280;65659;49.234;-2.094;2023-02-11T07:38:46;102573.85;;;25.79;24.40
73242;BME280;65659;49.234;-2.094;2023-02-11T07:41:13;102571.32;;;26.10;24.30
73242;BME280;65659;49.234;-2.094;2023-02-11T07:43:38;102568.48;;;26.07;24.35
73242;BME280;65659;49.234;-2.094;2023-02-11T07:46:04;102565.24;;;26.00;24.41
73242;BME280;65659;49.234;-2.094;2023-02-11T07:48:29;102566.03;;;25.93;24.47
73242;BME280;65659;49.234;-2.094;2023-02-11T07:50:54;102569.81;;;25.92;24.48
73242;BME280;65659;49.234;-2.094;2023-02-11T07:53:20;102570.65;;;25.88;24.50
73242;BME280;65659;49.234;-2.094;2023-02-11T07:55:46;102566.74;;;25.90;24.49
73242;BME280;65659;49.234;-2.094;2023-02-11T07:58:11;102562.96;;;25.90;24.51
73242;BME280;65659;49.234;-2.094;2023-02-11T08:00:37;102565.17;;;25.90;24.51
73242;BME280;65659;49.234;-2.094;2023-02-11T08:03:03;102566.91;;;25.90;24.50
73242;BME280;65659;49.234;-2.094;2023-02-11T08:05:29;102568.15;;;25.92;24.49
73242;BME280;65659;49.234;-2.094;2023-02-11T08:07:54;102566.56;;;25.88;24.58
73242;BME280;65659;49.234;-2.094;2023-02-11T08:10:21;102565.66;;;25.93;24.52
73242;BME280;65659;49.234;-2.094;2023-02-11T08:12:46;102566.58;;;25.96;24.47
73242;BME280;65659;49.234;-2.094;2023-02-11T08:15:12;102566.79;;;25.95;24.54
73242;BME280;65659;49.234;-2.094;2023-02-11T08:17:37;102566.31;;;26.01;24.45
73242;BME280;65659;49.234;-2.094;2023-02-11T08:20:04;102568.68;;;25.80;24.45
73242;BME280;65659;49.234;-2.094;2023-02-11T08:22:30;102573.58;;;25.77;24.47
73242;BME280;65659;49.234;-2.094;2023-02-11T08:24:54;102573.60;;;26.03;24.47
73242;BME280;65659;49.234;-2.094;2023-02-11T08:27:20;102570.59;;;26.05;24.43
73242;BME280;65659;49.234;-2.094;2023-02-11T08:29:46;102567.51;;;26.02;24.46
73242;BME280;65659;49.234;-2.094;2023-02-11T08:32:12;102569.37;;;25.79;24.50
73242;BME280;65659;49.234;-2.094;2023-02-11T08:34:38;102571.83;;;26.00;24.51
73242;BME280;65659;49.234;-2.094;2023-02-11T08:37:03;102571.29;;;26.01;24.47
73242;BME280;65659;49.234;-2.094;2023-02-11T08:39:29;102566.84;;;25.96;24.54
73242;BME280;65659;49.234;-2.094;2023-02-11T08:41:55;102562.65;;;25.70;24.53
73242;BME280;65659;49.234;-2.094;2023-02-11T08:44:21;102563.12;;;25.95;24.55
73242;BME280;65659;49.234;-2.094;2023-02-11T08:46:47;102568.65;;;25.98;24.50
73242;BME280;65659;49.234;-2.094;2023-02-11T08:49:12;102576.83;;;25.72;24.55
73242;BME280;65659;49.234;-2.094;2023-02-11T08:51:38;102576.96;;;25.97;24.59
73242;BME280;65659;49.234;-2.094;2023-02-11T08:54:04;102573.53;;;26.05;24.49
73242;BME280;65659;49.234;-2.094;2023-02-11T08:56:29;102571.94;;;26.02;24.48
73242;BME280;65659;49.234;-2.094;2023-02-11T08:58:55;102568.73;;;26.00;24.52
73242;BME280;65659;49.234;-2.094;2023-02-11T09:01:22;102570.09;;;25.96;24.55
73242;BME280;65659;49.234;-2.094;2023-02-11T09:03:46;102567.57;;;25.69;24.62
73242;BME280;65659;49.234;-2.094;2023-02-11T09:06:13;102568.41;;;25.93;24.63
73242;BME280;65659;49.234;-2.094;2023-02-11T09:08:40;102571.58;;;25.92;24.62
73242;BME280;65659;49.234;-2.094;2023-02-11T09:11:04;102574.22;;;25.94;24.61
73242;BME280;65659;49.234;-2.094;2023-02-11T09:13:29;102577.85;;;25.77;24.57
73242;BME280;65659;49.234;-2.094;2023-02-11T09:15:55;102580.01;;;26.03;24.55
73242;BME280;65659;49.234;-2.094;2023-02-11T09:18:21;102581.49;;;26.09;24.49
73242;BME280;65659;49.234;-2.094;2023-02-11T09:20:46;102579.08;;;26.08;24.53
73242;BME280;65659;49.234;-2.094;2023-02-11T09:23:12;102575.62;;;26.03;24.60
73242;BME280;65659;49.234;-2.094;2023-02-11T09:25:38;102580.11;;;26.08;24.54
73242;BME280;65659;49.234;-2.094;2023-02-11T09:28:04;102582.51;;;26.06;24.58
73242;BME280;65659;49.234;-2.094;2023-02-11T09:30:29;102583.21;;;25.88;24.47
73242;BME280;65659;49.234;-2.094;2023-02-11T09:32:55;102587.16;;;26.08;24.51
73242;BME280;65659;49.234;-2.094;2023-02-11T09:35:21;102586.86;;;25.77;24.60
73242;BME280;65659;49.234;-2.094;2023-02-11T09:37:46;102586.57;;;26.02;24.52
73242;BME280;65659;49.234;-2.094;2023-02-11T09:40:14;102582.42;;;26.04;24.53
73242;BME280;65659;49.234;-2.094;2023-02-11T09:42:44;102582.13;;;26.04;24.59
73242;BME280;65659;49.234;-2.094;2023-02-11T09:45:11;102581.87;;;25.81;24.61
73242;BME280;65659;49.234;-2.094;2023-02-11T09:47:31;102586.63;;;26.24;24.63
73242;BME280;65659;49.234;-2.094;2023-02-11T09:50:00;102589.46;;;25.99;24.62
73242;BME280;65659;49.234;-2.094;2023-02-11T09:52:29;102594.29;;;25.96;24.64
73242;BME280;65659;49.234;-2.094;2023-02-11T09:54:53;102596.73;;;25.99;24.63
73242;BME280;65659;49.234;-2.094;2023-02-11T09:57:12;102597.08;;;25.97;24.69
73242;BME280;65659;49.234;-2.094;2023-02-11T09:59:39;102592.15;;;25.98;24.69
73242;BME280;65659;49.234;-2.094;2023-02-11T10:02:10;102592.62;;;25.76;24.64
73242;BME280;65659;49.234;-2.094;2023-02-11T10:04:43;102595.14;;;25.98;24.70
73242;BME280;65659;49.234;-2.094;2023-02-11T10:06:58;102597.59;;;26.11;24.57
73242;BME280;65659;49.234;-2.094;2023-02-11T10:09:33;102597.50;;;25.98;24.51
73242;BME280;65659;49.234;-2.094;2023-02-11T10:11:53;102603.38;;;26.19;24.51
73242;BME280;65659;49.234;-2.094;2023-02-11T10:14:24;102604.37;;;26.11;24.63
73242;BME280;65659;49.234;-2.094;2023-02-11T10:16:51;102608.61;;;26.14;24.62
73242;BME280;65659;49.234;-2.094;2023-02-11T10:19:17;102608.64;;;25.88;24.63
73242;BME280;65659;49.234;-2.094;2023-02-11T10:21:36;102606.24;;;26.38;24.59
73242;BME280;65659;49.234;-2.094;2023-02-11T10:24:00;102608.20;;;26.14;24.60
73242;BME280;65659;49.234;-2.094;2023-02-11T10:26:21;102609.86;;;26.10;24.63
73242;BME280;65659;49.234;-2.094;2023-02-11T10:28:49;102609.00;;;26.08;24.62
73242;BME280;65659;49.234;-2.094;2023-02-11T10:31:15;102610.49;;;26.08;24.61
73242;BME280;65659;49.234;-2.094;2023-02-11T10:33:42;102610.39;;;25.81;24.69
73242;BME280;65659;49.234;-2.094;2023-02-11T10:36:05;102609.60;;;26.04;24.73
73242;BME280;65659;49.234;-2.094;2023-02-11T10:38:30;102607.05;;;26.05;24.72
73242;BME280;65659;49.234;-2.094;2023-02-11T10:40:55;102603.82;;;26.29;24.71
73242;BME280;65659;49.234;-2.094;2023-02-11T10:43:25;102599.78;;;26.06;24.68
73242;BME280;65659;49.234;-2.094;2023-02-11T10:45:50;102600.60;;;26.05;24.73
73242;BME280;65659;49.234;-2.094;2023-02-11T10:50:38;102608.12;;;26.03;24.77
73242;BME280;65659;49.234;-2.094;2023-02-11T10:53:16;102606.77;;;25.99;24.87
73242;BME280;65659;49.234;-2.094;2023-02-11T10:55:30;102602.91;;;26.01;24.81
73242;BME280;65659;49.234;-2.094;2023-02-11T10:57:59;102607.33;;;26.00;24.85
73242;BME280;65659;49.234;-2.094;2023-02-11T11:00:30;102610.81;;;26.07;24.78
73242;BME280;65659;49.234;-2.094;2023-02-11T11:02:53;102606.79;;;26.06;24.82
73242;BME280;65659;49.234;-2.094;2023-02-11T11:05:16;102601.60;;;25.85;24.81
73242;BME280;65659;49.234;-2.094;2023-02-11T11:07:38;102600.72;;;25.92;24.75
73242;BME280;65659;49.234;-2.094;2023-02-11T11:10:06;102599.45;;;25.81;24.83
73242;BME280;65659;49.234;-2.094;2023-02-11T11:12:33;102603.72;;;26.07;24.81
73242;BME280;65659;49.234;-2.094;2023-02-11T11:14:57;102602.98;;;25.78;24.86
73242;BME280;65659;49.234;-2.094;2023-02-11T11:17:21;102604.39;;;25.83;24.82
73242;BME280;65659;49.234;-2.094;2023-02-11T11:19:47;102606.08;;;25.81;24.82
73242;BME280;65659;49.234;-2.094;2023-02-11T11:22:19;102606.21;;;26.11;24.77
73242;BME280;65659;49.234;-2.094;2023-02-11T11:24:43;102605.00;;;26.08;24.79
73242;BME280;65659;49.234;-2.094;2023-02-11T11:27:04;102601.44;;;26.05;24.82
73242;BME280;65659;49.234;-2.094;2023-02-11T11:29:35;102596.60;;;26.27;24.90
73242;BME280;65659;49.234;-2.094;2023-02-11T11:31:57;102593.24;;;26.03;24.88
73242;BME280;65659;49.234;-2.094;2023-02-11T11:34:25;102588.00;;;26.01;24.94
73242;BME280;65659;49.234;-2.094;2023-02-11T11:36:47;102587.05;;;25.99;24.95
73242;BME280;65659;49.234;-2.094;2023-02-11T11:39:19;102588.54;;;25.95;24.96
73242;BME280;65659;49.234;-2.094;2023-02-11T11:41:48;102588.47;;;25.98;24.99
73242;BME280;65659;49.234;-2.094;2023-02-11T11:44:18;102582.55;;;26.01;24.92
73242;BME280;65659;49.234;-2.094;2023-02-11T11:46:35;102579.10;;;26.03;24.96
73242;BME280;65659;49.234;-2.094;2023-02-11T11:49:02;102579.22;;;25.77;24.98
73242;BME280;65659;49.234;-2.094;2023-02-11T11:51:23;102580.61;;;26.02;25.01
73242;BME280;65659;49.234;-2.094;2023-02-11T11:53:52;102580.88;;;26.04;24.98
73242;BME280;65659;49.234;-2.094;2023-02-11T11:56:16;102578.33;;;26.09;24.96
73242;BME280;65659;49.234;-2.094;2023-02-11T11:58:39;102574.63;;;25.92;24.86
73242;BME280;65659;49.234;-2.094;2023-02-11T12:01:14;102573.87;;;25.93;24.85
73242;BME280;65659;49.234;-2.094;2023-02-11T12:03:44;102573.71;;;26.38;24.88
73242;BME280;65659;49.234;-2.094;2023-02-11T12:06:09;102573.63;;;26.12;24.89
73242;BME280;65659;49.234;-2.094;2023-02-11T12:08:27;102572.54;;;26.13;24.90
73242;BME280;65659;49.234;-2.094;2023-02-11T12:10:56;102569.89;;;26.09;24.92
73242;BME280;65659;49.234;-2.094;2023-02-11T12:13:22;102565.09;;;26.07;24.97
73242;BME280;65659;49.234;-2.094;2023-02-11T12:15:46;102564.52;;;26.07;24.94
73242;BME280;65659;49.234;-2.094;2023-02-11T12:18:16;102567.27;;;26.04;24.92
73242;BME280;65659;49.234;-2.094;2023-02-11T12:20:37;102567.03;;;26.05;24.97
73242;BME280;65659;49.234;-2.094;2023-02-11T12:23:10;102564.97;;;26.01;25.04
73242;BME280;65659;49.234;-2.094;2023-02-11T12:25:26;102560.90;;;26.06;24.99
73242;BME280;65659;49.234;-2.094;2023-02-11T12:27:55;102562.13;;;26.07;25.01
73242;BME280;65659;49.234;-2.094;2023-02-11T12:30:25;102562.09;;;26.05;24.99
73242;BME280;65659;49.234;-2.094;2023-02-11T12:32:45;102563.97;;;26.04;25.04
73242;BME280;65659;49.234;-2.094;2023-02-11T12:35:21;102563.31;;;26.09;24.95
73242;BME280;65659;49.234;-2.094;2023-02-11T12:37:40;102560.72;;;26.13;24.91
73242;BME280;65659;49.234;-2.094;2023-02-11T12:40:02;102557.22;;;26.12;25.01